createdAt,value
2018-07-04T00:03:19.516Z,64.7
2018-07-04T00:08:17.669Z,64.5
2018-07-04T00:13:15.690Z,64.5
2018-07-04T00:18:14.020Z,64.5
2018-07-04T00:23:11.812Z,64.5
2018-07-04T00:28:09.963Z,64.5
2018-07-04T00:33:08.157Z,64.5
2018-07-04T00:38:06.043Z,64.6
2018-07-04T00:43:04.287Z,64.5
2018-07-04T00:48:02.847Z,64.6
2018-07-04T00:53:01.083Z,64.7
2018-07-04T00:57:59.079Z,64.8
2018-07-04T01:02:57.037Z,65.1
2018-07-04T01:07:54.823Z,65.2
2018-07-04T01:12:52.835Z,65.3
2018-07-04T01:17:51.164Z,65.7
2018-07-04T01:22:49.368Z,65.7
2018-07-04T01:27:47.574Z,65.6
2018-07-04T01:32:45.584Z,65.8
2018-07-04T01:37:43.846Z,65.9
2018-07-04T01:42:42.170Z,66.1
2018-07-04T01:47:40.413Z,66.1
2018-07-04T01:52:38.782Z,66.6
2018-07-04T01:57:36.962Z,66.4
2018-07-04T02:02:35.085Z,66.4
2018-07-04T02:07:33.136Z,66.6
2018-07-04T02:12:31.614Z,66.7
2018-07-04T02:17:29.525Z,66.8
2018-07-04T02:22:27.474Z,66.7
2018-07-04T02:27:25.310Z,66.7
2018-07-04T02:32:23.265Z,66.8
2018-07-04T02:37:21.551Z,66.7
2018-07-04T02:42:19.342Z,66.8
2018-07-04T02:47:17.491Z,66.9
2018-07-04T02:52:15.799Z,67.2
2018-07-04T02:57:13.779Z,67.1
2018-07-04T03:02:12.295Z,67.2
2018-07-04T03:07:10.145Z,67.7
2018-07-04T03:12:08.303Z,67.9
2018-07-04T03:17:06.344Z,67.7
2018-07-04T03:22:04.355Z,67.5
2018-07-04T03:27:02.833Z,67.5
2018-07-04T03:32:00.782Z,67.5
2018-07-04T03:36:59.105Z,67.5
2018-07-04T03:41:57.243Z,67.9
2018-07-04T03:46:55.192Z,67.8
2018-07-04T03:51:53.103Z,67.9
2018-07-04T03:56:50.723Z,67.9
2018-07-04T04:01:48.457Z,68
2018-07-04T04:06:45.687Z,68.3
2018-07-04T04:11:43.901Z,68.3
2018-07-04T04:16:42.205Z,68.2
2018-07-04T04:21:39.904Z,68.1
2018-07-04T04:26:37.889Z,68.2
2018-07-04T04:31:35.906Z,68.1
2018-07-04T04:36:33.878Z,68.1
2018-07-04T04:41:31.842Z,68
2018-07-04T04:46:30.215Z,68.1
2018-07-04T04:51:28.335Z,68.1
2018-07-04T04:56:26.440Z,68.2
2018-07-04T05:01:25.019Z,68.1
2018-07-04T05:06:23.028Z,68.5
2018-07-04T05:11:21.084Z,68.3
2018-07-04T05:16:19.331Z,68
2018-07-04T05:21:17.153Z,68
2018-07-04T05:26:14.979Z,67.9
2018-07-04T05:31:13.042Z,67.8
2018-07-04T05:36:11.175Z,67.6
2018-07-04T05:41:09.236Z,67.6
2018-07-04T05:46:08.133Z,67.9
2018-07-04T05:51:06.043Z,67.8
2018-07-04T05:56:04.148Z,67.6
2018-07-04T06:01:02.137Z,67.5
2018-07-04T06:06:00.043Z,67.4
2018-07-04T06:10:58.078Z,67.2
2018-07-04T06:15:55.850Z,66.9
2018-07-04T06:20:53.930Z,66.7
2018-07-04T06:25:51.630Z,66.8
2018-07-04T06:30:49.630Z,66.9
2018-07-04T06:35:47.762Z,66.7
2018-07-04T06:40:46.201Z,66.6
2018-07-04T06:45:44.851Z,66.3
2018-07-04T06:50:42.470Z,66.1
2018-07-04T06:55:39.925Z,66
2018-07-04T07:00:37.984Z,65.9
2018-07-04T07:05:35.978Z,65.8
2018-07-04T07:10:34.031Z,65.8
2018-07-04T07:15:31.649Z,65.8
2018-07-04T07:20:29.959Z,65.6
2018-07-04T07:25:28.123Z,65.6
2018-07-04T07:30:26.142Z,65.5
2018-07-04T07:35:23.950Z,65.4
2018-07-04T07:40:21.816Z,65.2
2018-07-04T07:45:20.382Z,65
2018-07-04T07:50:18.271Z,64.8
2018-07-04T07:55:16.188Z,64.7
2018-07-04T08:00:13.940Z,64.6
2018-07-04T08:05:11.779Z,64.6
2018-07-04T08:10:10.478Z,64.5
2018-07-04T08:15:08.505Z,64.4
2018-07-04T08:20:06.770Z,64.3
2018-07-04T08:25:04.695Z,64.2
2018-07-04T08:30:02.453Z,64.2
2018-07-04T08:35:00.794Z,64
2018-07-04T08:39:58.948Z,63.8
2018-07-04T08:44:57.198Z,63.6
2018-07-04T08:49:55.280Z,63.5
2018-07-04T08:54:53.399Z,63.3
2018-07-04T08:59:52.048Z,63.1
2018-07-04T09:04:50.086Z,62.9
2018-07-04T09:09:48.152Z,62.8
2018-07-04T09:14:47.288Z,62.4
2018-07-04T09:19:45.148Z,62
2018-07-04T09:24:43.109Z,61.6
2018-07-04T09:29:41.670Z,61.6
2018-07-04T09:34:39.977Z,61.1
2018-07-04T09:39:38.072Z,60.4
2018-07-04T09:44:36.502Z,59.7
2018-07-04T09:49:34.946Z,59.6
2018-07-04T09:54:32.952Z,59.2
2018-07-04T09:59:31.320Z,59.3
2018-07-04T10:04:29.873Z,58.8
2018-07-04T10:09:28.000Z,58.5
2018-07-04T10:14:25.862Z,57.9
2018-07-04T10:19:24.547Z,57.8
2018-07-04T10:24:22.925Z,57.6
2018-07-04T10:29:21.368Z,57.6
2018-07-04T10:34:19.353Z,57.5
2018-07-04T10:39:18.105Z,57.4
2018-07-04T10:44:16.463Z,56.9
2018-07-04T10:49:14.693Z,56
2018-07-04T10:54:12.361Z,56.2
2018-07-04T10:59:10.930Z,56.4
2018-07-04T11:04:09.756Z,56.6
2018-07-04T11:09:08.061Z,56.4
2018-07-04T11:14:06.099Z,56.4
2018-07-04T11:19:03.953Z,56.3
2018-07-04T11:24:02.712Z,56.4
2018-07-04T11:29:01.007Z,56
2018-07-04T11:33:59.293Z,55.8
2018-07-04T11:38:57.432Z,56
2018-07-04T11:43:55.830Z,56.1
2018-07-04T11:48:53.971Z,56.1
2018-07-04T11:53:53.232Z,56.5
2018-07-04T11:58:50.268Z,56.2
2018-07-04T12:03:48.951Z,52.4
2018-07-04T12:08:47.645Z,53.1
2018-07-04T12:13:45.409Z,53.2
2018-07-04T12:18:44.735Z,53
2018-07-04T12:23:42.617Z,53.6
2018-07-04T12:28:40.954Z,53.9
2018-07-04T12:33:39.728Z,53.9
2018-07-04T12:38:37.920Z,53.8
2018-07-04T12:43:36.878Z,53.2
2018-07-04T12:48:35.473Z,52
2018-07-04T12:53:33.554Z,51.9
2018-07-04T12:58:32.190Z,51.5
2018-07-04T13:03:30.845Z,51.1
2018-07-04T13:08:28.518Z,50.7
2018-07-04T13:13:27.024Z,49.5
2018-07-04T13:18:25.728Z,47.5
2018-07-04T13:23:24.254Z,46.5
2018-07-04T13:28:23.078Z,46.3
2018-07-04T13:33:20.668Z,47
2018-07-04T13:38:18.681Z,46.7
2018-07-04T13:43:16.833Z,47.5
2018-07-04T13:48:14.911Z,47.5
2018-07-04T13:53:13.406Z,46.2
2018-07-04T13:58:11.676Z,46.7
2018-07-04T14:03:10.983Z,47.1
2018-07-04T14:08:08.786Z,46.5
2018-07-04T14:13:06.658Z,46
2018-07-04T14:18:04.471Z,45.7
2018-07-04T14:23:02.920Z,45
2018-07-04T14:28:00.579Z,44.8
2018-07-04T14:32:58.823Z,45.6
2018-07-04T14:37:56.817Z,45.4
2018-07-04T14:42:55.100Z,48
2018-07-04T14:47:52.027Z,48.8
2018-07-04T14:52:49.932Z,49.3
2018-07-04T14:57:48.424Z,50
2018-07-04T15:02:46.109Z,50.3
2018-07-04T15:07:43.764Z,49.6
2018-07-04T15:12:41.329Z,49.3
2018-07-04T15:17:37.253Z,48.2
2018-07-04T15:22:34.904Z,49
2018-07-04T15:27:35.840Z,52.4
2018-07-04T15:32:32.719Z,52.8
2018-07-04T15:37:30.278Z,55.6
2018-07-04T15:42:28.424Z,57.5
2018-07-04T15:47:26.250Z,58.1
2018-07-04T15:52:24.217Z,59.3
2018-07-04T15:57:21.902Z,60.4
2018-07-04T16:02:19.395Z,61.4
2018-07-04T16:07:17.306Z,60.9
2018-07-04T16:12:15.064Z,61.8
2018-07-04T16:17:12.764Z,62
2018-07-04T16:22:10.716Z,62.4
2018-07-04T16:27:08.538Z,62.9
2018-07-04T16:32:06.099Z,62.7
2018-07-04T16:37:04.503Z,64
2018-07-04T16:42:02.290Z,64
2018-07-04T16:47:00.288Z,66
2018-07-04T16:51:58.290Z,66.2
2018-07-04T16:56:56.454Z,67.3
2018-07-04T17:01:54.277Z,67.1
2018-07-04T17:06:52.298Z,67.9
2018-07-04T17:11:50.351Z,67.6
2018-07-04T17:16:48.129Z,67.6
2018-07-04T17:21:45.663Z,68.3
2018-07-04T17:26:43.451Z,67.8
2018-07-04T17:31:41.258Z,69.2
2018-07-04T17:36:39.064Z,68.2
2018-07-04T17:41:36.775Z,68.7
2018-07-04T17:46:34.835Z,68.3
2018-07-04T17:51:32.811Z,68.4
2018-07-04T17:56:30.694Z,67.7
2018-07-04T18:01:29.503Z,67.5
2018-07-04T18:06:27.264Z,68.2
2018-07-04T18:11:25.304Z,68
2018-07-04T18:16:23.363Z,68.3
2018-07-04T18:21:21.260Z,68.5
2018-07-04T18:26:19.181Z,68.1
2018-07-04T18:31:17.119Z,68.5
2018-07-04T18:36:14.819Z,68.3
2018-07-04T18:41:12.608Z,68.5
2018-07-04T18:46:10.658Z,68.3
2018-07-04T18:51:08.040Z,68.5
2018-07-04T18:56:06.392Z,68.3
2018-07-04T19:01:04.119Z,68.7
2018-07-04T19:06:01.963Z,68.9
2018-07-04T19:10:59.881Z,69
2018-07-04T19:15:57.074Z,69.2
2018-07-04T19:20:54.954Z,69.5
2018-07-04T19:25:53.172Z,70.2
2018-07-04T19:30:51.609Z,69.9
2018-07-04T19:35:49.617Z,70.4
2018-07-04T19:40:47.320Z,70.9
2018-07-04T19:45:45.202Z,71
2018-07-04T19:50:43.256Z,70.8
2018-07-04T19:55:41.083Z,70.6
2018-07-04T20:00:38.832Z,70.7
2018-07-04T20:05:36.975Z,70.9
2018-07-04T20:10:35.847Z,71.5
2018-07-04T20:15:33.847Z,71.6
2018-07-04T20:20:31.791Z,71.5
2018-07-04T20:25:29.736Z,71.5
2018-07-04T20:30:27.965Z,72.1
2018-07-04T20:35:25.985Z,71.5
2018-07-04T20:40:24.072Z,71.2
2018-07-04T20:45:21.917Z,70.5
2018-07-04T20:50:20.271Z,70.6
2018-07-04T20:55:18.110Z,71
2018-07-04T21:00:16.005Z,71.3
2018-07-04T21:05:13.976Z,71.4
2018-07-04T21:10:11.998Z,70.8
2018-07-04T21:15:10.175Z,70.7
2018-07-04T21:20:07.937Z,71.1
2018-07-04T21:25:06.244Z,71.1
2018-07-04T21:30:04.811Z,71.6
2018-07-04T21:35:02.711Z,72
2018-07-04T21:40:00.988Z,71.2
2018-07-04T21:44:58.853Z,71.4
2018-07-04T21:49:56.683Z,71
2018-07-04T21:54:54.894Z,70.6
2018-07-04T21:59:52.886Z,70.5
2018-07-04T22:04:50.544Z,70.5
2018-07-04T22:09:48.254Z,70.6
2018-07-04T22:14:46.297Z,70.6
2018-07-04T22:19:44.233Z,70.4
2018-07-04T22:24:42.567Z,70.3
2018-07-04T22:29:40.683Z,70.2
2018-07-04T22:34:38.163Z,70.4
2018-07-04T22:39:36.370Z,70.2
2018-07-04T22:44:34.511Z,70.1
2018-07-04T22:49:32.473Z,69.9
2018-07-04T22:54:30.389Z,70.1
2018-07-04T22:59:28.544Z,70
2018-07-04T23:04:26.831Z,70.1
2018-07-04T23:09:25.010Z,70
2018-07-04T23:14:23.037Z,70.1
2018-07-04T23:19:21.474Z,69.7
2018-07-04T23:24:19.401Z,70
2018-07-04T23:29:17.590Z,69.8
2018-07-04T23:34:15.566Z,69.8
2018-07-04T23:39:13.808Z,69.9
2018-07-04T23:44:11.574Z,69.7
2018-07-04T23:49:09.458Z,70.1
2018-07-04T23:54:07.682Z,70
2018-07-04T23:59:05.479Z,70
